createdAt,value
2017-09-01T00:00:30.319Z,33.9
2017-09-01T00:01:30.393Z,33.8
2017-09-01T00:02:32.193Z,33.8
2017-09-01T00:03:30.535Z,33.8
2017-09-01T00:04:30.603Z,33.9
2017-09-01T00:05:33.938Z,33.8
2017-09-01T00:06:30.409Z,33.8
2017-09-01T00:07:32.573Z,33.8
2017-09-01T00:08:30.651Z,33.8
2017-09-01T00:09:30.757Z,33.8
2017-09-01T00:10:30.628Z,33.8
2017-09-01T00:11:32.743Z,33.8
2017-09-01T00:12:32.605Z,33.8
2017-09-01T00:13:32.927Z,33.8
2017-09-01T00:14:32.775Z,33.8
2017-09-01T00:15:30.952Z,33.8
2017-09-01T00:16:31.142Z,33.8
2017-09-01T00:17:31.244Z,33.8
2017-09-01T00:18:31.299Z,33.8
2017-09-01T00:19:33.218Z,33.8
2017-09-01T00:20:34.643Z,33.8
2017-09-01T00:21:33.348Z,33.8
2017-09-01T00:22:31.234Z,33.8
2017-09-01T00:23:35.476Z,33.8
2017-09-01T00:24:31.297Z,33.8
2017-09-01T00:25:31.326Z,33.8
2017-09-01T00:26:33.467Z,33.8
2017-09-01T00:27:33.319Z,33.8
2017-09-01T00:28:31.452Z,33.8
2017-09-01T00:29:33.661Z,33.8
2017-09-01T00:30:31.800Z,33.8
2017-09-01T00:31:31.876Z,33.8
2017-09-01T00:32:34.862Z,33.8
2017-09-01T00:33:31.832Z,33.8
2017-09-01T00:34:32.043Z,33.8
2017-09-01T00:35:32.603Z,33.8
2017-09-01T00:36:34.559Z,33.8
2017-09-01T00:37:32.780Z,33.8
2017-09-01T00:38:32.044Z,33.8
2017-09-01T00:39:32.105Z,33.8
2017-09-01T00:40:32.363Z,33.8
2017-09-01T00:41:32.425Z,33.8
2017-09-01T00:42:35.841Z,33.8
2017-09-01T00:43:32.517Z,33.8
2017-09-01T00:44:32.310Z,33.7
2017-09-01T00:45:32.401Z,33.7
2017-09-01T00:46:35.705Z,33.8
2017-09-01T00:47:35.974Z,33.7
2017-09-01T00:48:34.629Z,33.8
2017-09-01T00:49:36.034Z,33.7
2017-09-01T00:50:34.455Z,33.7
2017-09-01T00:51:32.593Z,33.7
2017-09-01T00:52:34.525Z,33.7
2017-09-01T00:53:36.197Z,33.7
2017-09-01T00:54:36.299Z,33.7
2017-09-01T00:55:33.003Z,33.7
2017-09-01T00:56:36.429Z,33.7
2017-09-01T00:57:35.091Z,33.7
2017-09-01T00:58:35.185Z,33.7
2017-09-01T00:59:36.461Z,33.7
2017-09-01T01:00:36.714Z,33.7
2017-09-01T01:01:33.427Z,33.7
2017-09-01T01:02:33.351Z,33.7
2017-09-01T01:03:35.423Z,33.7
2017-09-01T01:04:33.365Z,33.7
2017-09-01T01:05:33.602Z,33.7
2017-09-01T01:06:36.987Z,33.7
2017-09-01T01:07:36.847Z,33.7
2017-09-01T01:08:33.776Z,33.7
2017-09-01T01:09:35.759Z,33.7
2017-09-01T01:10:37.246Z,33.7
2017-09-01T01:11:33.773Z,33.7
2017-09-01T01:12:37.206Z,33.7
2017-09-01T01:13:37.273Z,33.7
2017-09-01T01:14:37.323Z,33.7
2017-09-01T01:15:34.032Z,33.7
2017-09-01T01:16:37.594Z,33.7
2017-09-01T01:17:37.804Z,33.7
2017-09-01T01:18:36.276Z,33.7
2017-09-01T01:19:34.453Z,33.7
2017-09-01T01:20:34.244Z,33.7
2017-09-01T01:21:34.282Z,33.7
2017-09-01T01:22:37.672Z,33.7
2017-09-01T01:23:34.765Z,33.7
2017-09-01T01:24:38.093Z,33.7
2017-09-01T01:25:34.492Z,33.7
2017-09-01T01:26:36.799Z,33.7
2017-09-01T01:27:36.604Z,33.7
2017-09-01T01:28:34.789Z,33.7
2017-09-01T01:29:35.149Z,33.7
2017-09-01T01:30:38.418Z,33.7
2017-09-01T01:31:34.971Z,33.7
2017-09-01T01:32:35.201Z,33.7
2017-09-01T01:33:38.576Z,33.7
2017-09-01T01:34:35.137Z,33.7
2017-09-01T01:35:36.190Z,33.7
2017-09-01T01:36:35.311Z,33.7
2017-09-01T01:37:38.890Z,33.7
2017-09-01T01:38:38.780Z,33.7
2017-09-01T01:39:38.703Z,33.7
2017-09-01T01:40:37.519Z,33.7
2017-09-01T01:41:37.784Z,33.7
2017-09-01T01:42:39.006Z,33.7
2017-09-01T01:43:35.980Z,33.7
2017-09-01T01:44:36.691Z,33.7
2017-09-01T01:45:36.194Z,33.7
2017-09-01T01:46:36.605Z,33.7
2017-09-01T01:47:38.507Z,33.7
2017-09-01T01:48:39.387Z,33.7
2017-09-01T01:49:37.983Z,33.7
2017-09-01T01:50:36.330Z,33.7
2017-09-01T01:51:36.156Z,33.7
2017-09-01T01:52:37.104Z,33.6
2017-09-01T01:53:36.672Z,33.6
2017-09-01T01:54:39.765Z,33.6
2017-09-01T01:55:40.201Z,33.6
2017-09-01T01:56:38.221Z,33.6
2017-09-01T01:57:36.558Z,33.6
2017-09-01T01:58:40.604Z,33.6
2017-09-01T01:59:38.743Z,33.6
2017-09-01T02:00:38.551Z,33.6
2017-09-01T02:01:37.332Z,33.6
2017-09-01T02:02:36.732Z,33.6
2017-09-01T02:03:38.882Z,33.6
2017-09-01T02:04:38.905Z,33.6
2017-09-01T02:05:37.644Z,33.6
2017-09-01T02:06:38.967Z,33.6
2017-09-01T02:07:37.788Z,33.6
2017-09-01T02:08:40.347Z,33.6
2017-09-01T02:09:37.153Z,33.6
2017-09-01T02:10:37.379Z,33.6
2017-09-01T02:11:37.506Z,33.6
2017-09-01T02:12:38.646Z,33.6
2017-09-01T02:13:37.375Z,33.6
2017-09-01T02:14:39.290Z,33.6
2017-09-01T02:15:37.149Z,33.6
2017-09-01T02:16:37.387Z,33.6
2017-09-01T02:17:37.787Z,33.6
2017-09-01T02:18:37.439Z,33.6
2017-09-01T02:19:38.981Z,33.6
2017-09-01T02:20:37.606Z,33.6
2017-09-01T02:21:37.655Z,33.5
2017-09-01T02:22:39.588Z,33.6
2017-09-01T02:23:38.056Z,33.5
2017-09-01T02:24:37.804Z,33.6
2017-09-01T02:25:41.365Z,33.5
2017-09-01T02:26:39.889Z,33.5
2017-09-01T02:27:41.577Z,33.6
2017-09-01T02:28:38.219Z,33.6
2017-09-01T02:29:38.414Z,33.6
2017-09-01T02:30:41.674Z,33.6
2017-09-01T02:31:40.344Z,33.6
2017-09-01T02:32:41.852Z,33.6
2017-09-01T02:33:41.949Z,33.5
2017-09-01T02:34:40.342Z,33.6
2017-09-01T02:35:42.380Z,33.5
2017-09-01T02:36:38.566Z,33.5
2017-09-01T02:37:42.086Z,33.5
2017-09-01T02:38:40.801Z,33.5
2017-09-01T02:39:38.692Z,33.5
2017-09-01T02:40:38.750Z,33.5
2017-09-01T02:41:41.159Z,33.5
2017-09-01T02:42:38.969Z,33.5
2017-09-01T02:43:38.979Z,33.5
2017-09-01T02:44:40.944Z,33.5
2017-09-01T02:45:42.415Z,33.5
2017-09-01T02:46:39.140Z,33.5
2017-09-01T02:47:42.819Z,33.5
2017-09-01T02:48:41.021Z,33.5
2017-09-01T02:49:41.243Z,33.5
2017-09-01T02:50:39.161Z,33.5
2017-09-01T02:51:39.231Z,33.5
2017-09-01T02:52:39.484Z,33.5
2017-09-01T02:53:39.791Z,33.5
2017-09-01T02:54:43.029Z,33.5
2017-09-01T02:55:39.698Z,33.5
2017-09-01T02:56:41.688Z,33.5
2017-09-01T02:57:43.184Z,33.5
2017-09-01T02:58:39.851Z,33.5
2017-09-01T02:59:39.976Z,33.5
2017-09-01T03:00:43.701Z,33.5
2017-09-01T03:01:43.404Z,33.5
2017-09-01T03:02:40.061Z,33.5
2017-09-01T03:03:43.298Z,33.5
2017-09-01T03:04:43.571Z,33.5
2017-09-01T03:05:40.320Z,33.5
2017-09-01T03:06:42.172Z,33.5
2017-09-01T03:07:41.938Z,33.5
2017-09-01T03:08:43.475Z,33.5
2017-09-01T03:09:42.333Z,33.5
2017-09-01T03:10:43.746Z,33.5
2017-09-01T03:11:42.396Z,33.5
2017-09-01T03:12:40.467Z,33.5
2017-09-01T03:13:40.478Z,33.5
2017-09-01T03:14:40.245Z,33.5
2017-09-01T03:15:42.205Z,33.5
2017-09-01T03:16:43.896Z,33.5
2017-09-01T03:17:42.624Z,33.5
2017-09-01T03:18:42.442Z,33.5
2017-09-01T03:19:40.815Z,33.5
2017-09-01T03:20:44.145Z,33.5
2017-09-01T03:21:43.995Z,33.5
2017-09-01T03:22:44.026Z,33.5
2017-09-01T03:23:43.205Z,33.5
2017-09-01T03:24:40.788Z,33.5
2017-09-01T03:25:44.071Z,33.5
2017-09-01T03:26:41.108Z,33.6
2017-09-01T03:27:40.954Z,33.7
2017-09-01T03:28:40.967Z,33.7
2017-09-01T03:29:41.342Z,33.7
2017-09-01T03:30:44.663Z,33.7
2017-09-01T03:31:43.031Z,33.8
2017-09-01T03:32:41.353Z,33.8
2017-09-01T03:33:41.401Z,33.9
2017-09-01T03:34:44.797Z,34
2017-09-01T03:35:44.826Z,34
2017-09-01T03:36:41.414Z,34.1
2017-09-01T03:37:41.290Z,34.1
2017-09-01T03:38:41.559Z,34.2
2017-09-01T03:39:43.371Z,34.2
2017-09-01T03:40:41.496Z,34.2
2017-09-01T03:41:41.772Z,34.2
2017-09-01T03:42:41.546Z,34.2
2017-09-01T03:43:45.136Z,34.3
2017-09-01T03:44:41.847Z,34.3
2017-09-01T03:45:45.219Z,34.3
2017-09-01T03:46:45.288Z,34.3
2017-09-01T03:47:42.082Z,34.3
2017-09-01T03:48:41.855Z,34.3
2017-09-01T03:49:44.023Z,34.3
2017-09-01T03:50:43.809Z,34.3
2017-09-01T03:51:41.955Z,34.3
2017-09-01T03:52:44.131Z,34.3
2017-09-01T03:53:42.602Z,34.3
2017-09-01T03:54:45.495Z,34.3
2017-09-01T03:55:42.422Z,34.3
2017-09-01T03:56:42.278Z,34.3
2017-09-01T03:57:42.363Z,34.3
2017-09-01T03:58:42.616Z,34.2
2017-09-01T03:59:45.795Z,34.2
2017-09-01T04:00:44.392Z,34.2
2017-09-01T04:01:44.428Z,34.2
2017-09-01T04:02:44.747Z,34.2
2017-09-01T04:03:45.964Z,34.2
2017-09-01T04:04:42.882Z,34.2
2017-09-01T04:05:45.996Z,34.2
2017-09-01T04:06:44.639Z,34.2
2017-09-01T04:07:42.980Z,34.2
2017-09-01T04:08:44.767Z,34.2
2017-09-01T04:09:42.933Z,34.2
2017-09-01T04:10:43.012Z,34.2
2017-09-01T04:11:44.923Z,34.2
2017-09-01T04:12:46.603Z,34.1
2017-09-01T04:13:43.290Z,34.1
2017-09-01T04:14:43.154Z,34.1
2017-09-01T04:15:43.412Z,34.1
2017-09-01T04:16:43.268Z,34.1
2017-09-01T04:17:43.311Z,34.1
2017-09-01T04:18:46.674Z,34.1
2017-09-01T04:19:43.579Z,34.1
2017-09-01T04:20:43.381Z,34.1
2017-09-01T04:21:43.633Z,34.1
2017-09-01T04:22:46.943Z,34.1
2017-09-01T04:23:43.487Z,34.1
2017-09-01T04:24:46.882Z,34.1
2017-09-01T04:25:46.947Z,34.1
2017-09-01T04:26:43.745Z,34.1
2017-09-01T04:27:43.777Z,34.1
2017-09-01T04:28:43.796Z,34
2017-09-01T04:29:46.033Z,34
2017-09-01T04:30:47.463Z,34
2017-09-01T04:31:44.128Z,34
2017-09-01T04:32:44.218Z,34
2017-09-01T04:33:47.581Z,34
2017-09-01T04:34:46.236Z,34
2017-09-01T04:35:44.131Z,34
2017-09-01T04:36:44.412Z,34
2017-09-01T04:37:46.212Z,34
2017-09-01T04:38:44.390Z,34
2017-09-01T04:39:46.365Z,34
2017-09-01T04:40:46.757Z,32.5
2017-09-01T04:41:44.482Z,31.3
2017-09-01T04:42:46.425Z,31.1
2017-09-01T04:43:44.569Z,31.8
2017-09-01T04:44:46.785Z,32.7
2017-09-01T04:45:46.793Z,33.7
2017-09-01T04:46:48.317Z,35
2017-09-01T04:47:49.473Z,35.8
2017-09-01T04:48:46.840Z,36.4
2017-09-01T04:49:44.821Z,36.9
2017-09-01T04:50:45.129Z,37.8
2017-09-01T04:51:46.880Z,38.4
2017-09-01T04:52:45.236Z,39
2017-09-01T04:53:46.023Z,39.4
2017-09-01T04:54:48.312Z,39.8
2017-09-01T04:55:48.359Z,40.2
2017-09-01T04:56:47.195Z,40.4
2017-09-01T04:57:47.023Z,40.9
2017-09-01T04:58:45.517Z,41.5
2017-09-01T04:59:45.323Z,42.1
2017-09-01T05:00:48.514Z,42.8
2017-09-01T05:01:48.563Z,43.2
2017-09-01T05:02:48.878Z,43.7
2017-09-01T05:03:45.604Z,44.1
2017-09-01T05:04:46.036Z,44.7
2017-09-01T05:05:49.096Z,45.2
2017-09-01T05:06:45.583Z,45.7
2017-09-01T05:07:45.531Z,46.3
2017-09-01T05:08:45.575Z,46.8
2017-09-01T05:09:45.883Z,47.4
2017-09-01T05:10:46.392Z,47.9
2017-09-01T05:11:49.129Z,48.3
2017-09-01T05:12:45.826Z,48.7
2017-09-01T05:13:48.370Z,49.2
2017-09-01T05:14:46.151Z,49.5
2017-09-01T05:15:49.556Z,49.8
2017-09-01T05:16:49.613Z,50
2017-09-01T05:17:46.101Z,50.2
2017-09-01T05:18:46.107Z,50.5
2017-09-01T05:19:49.712Z,51
2017-09-01T05:20:46.237Z,51.2
2017-09-01T05:21:46.261Z,51.2
2017-09-01T05:22:50.009Z,51
2017-09-01T05:23:49.773Z,50.6
2017-09-01T05:24:46.423Z,50.1
2017-09-01T05:25:48.343Z,49.5
2017-09-01T05:26:46.431Z,49
2017-09-01T05:27:49.839Z,48.4
2017-09-01T05:28:46.813Z,47.9
2017-09-01T05:29:46.757Z,47.4
2017-09-01T05:30:50.143Z,46.9
2017-09-01T05:31:47.520Z,46.4
2017-09-01T05:32:49.159Z,46
2017-09-01T05:33:47.406Z,45.6
2017-09-01T05:34:47.161Z,45.2
2017-09-01T05:35:47.004Z,44.8
2017-09-01T05:36:50.787Z,44.5
2017-09-01T05:37:49.108Z,44.2
2017-09-01T05:38:50.312Z,43.8
2017-09-01T05:39:47.168Z,43.5
2017-09-01T05:40:50.849Z,43.3
2017-09-01T05:41:49.329Z,43
2017-09-01T05:42:47.288Z,42.7
2017-09-01T05:43:47.188Z,42.5
2017-09-01T05:44:47.524Z,42.3
2017-09-01T05:45:47.513Z,42.1
2017-09-01T05:46:49.716Z,41.8
2017-09-01T05:47:49.332Z,41.6
2017-09-01T05:48:47.463Z,41.4
2017-09-01T05:49:47.684Z,41.3
2017-09-01T05:50:49.458Z,41.1
2017-09-01T05:51:51.160Z,40.9
2017-09-01T05:52:51.194Z,40.8
2017-09-01T05:53:50.938Z,40.6
2017-09-01T05:54:47.732Z,40.5
2017-09-01T05:55:47.738Z,40.3
2017-09-01T05:56:49.875Z,40.2
2017-09-01T05:57:47.960Z,40.1
2017-09-01T05:58:50.032Z,39.9
2017-09-01T05:59:48.011Z,39.8
2017-09-01T06:00:50.132Z,39.7
2017-09-01T06:01:48.209Z,39.6
2017-09-01T06:02:50.187Z,39.5
2017-09-01T06:03:48.243Z,39.4
2017-09-01T06:04:51.604Z,39.3
2017-09-01T06:05:51.657Z,39.2
2017-09-01T06:06:48.160Z,39.1
2017-09-01T06:07:48.361Z,39
2017-09-01T06:08:48.511Z,38.9
2017-09-01T06:09:49.808Z,38.8
2017-09-01T06:10:48.830Z,38.7
2017-09-01T06:11:49.061Z,38.7
2017-09-01T06:12:50.733Z,38.6
2017-09-01T06:13:49.343Z,38.5
2017-09-01T06:14:48.593Z,38.1
2017-09-01T06:15:49.089Z,37.7
2017-09-01T06:16:51.040Z,37.3
2017-09-01T06:17:51.343Z,37.1
2017-09-01T06:18:49.036Z,37
2017-09-01T06:19:52.855Z,36.9
2017-09-01T06:20:53.016Z,36.8
2017-09-01T06:21:49.167Z,36.6
2017-09-01T06:22:51.851Z,36.7
2017-09-01T06:23:49.510Z,37
2017-09-01T06:24:52.653Z,37.2
2017-09-01T06:25:51.306Z,37.5
2017-09-01T06:26:49.640Z,37.8
2017-09-01T06:27:49.517Z,38.4
2017-09-01T06:28:52.054Z,38.8
2017-09-01T06:29:53.454Z,39.2
2017-09-01T06:30:51.589Z,39.2
2017-09-01T06:31:50.623Z,39.6
2017-09-01T06:32:53.625Z,39.9
2017-09-01T06:33:49.982Z,40.1
2017-09-01T06:34:51.082Z,40.3
2017-09-01T06:35:50.035Z,40.3
2017-09-01T06:36:50.452Z,40.4
2017-09-01T06:37:49.931Z,40.4
2017-09-01T06:38:52.163Z,40.3
2017-09-01T06:39:51.875Z,40.1
2017-09-01T06:40:50.660Z,40
2017-09-01T06:41:49.896Z,39.9
2017-09-01T06:42:50.851Z,39.7
2017-09-01T06:43:51.701Z,39.6
2017-09-01T06:44:49.896Z,39.5
2017-09-01T06:45:51.475Z,39.4
2017-09-01T06:46:50.729Z,39.3
2017-09-01T06:47:53.880Z,39.2
2017-09-01T06:48:52.571Z,39.2
2017-09-01T06:49:54.328Z,39.2
2017-09-01T06:50:50.988Z,39
2017-09-01T06:51:51.493Z,38.9
2017-09-01T06:52:50.775Z,39.1
2017-09-01T06:53:53.940Z,39.2
2017-09-01T06:54:54.550Z,39.3
2017-09-01T06:55:54.161Z,39.3
2017-09-01T06:56:54.566Z,39.2
2017-09-01T06:57:51.573Z,39.3
2017-09-01T06:58:54.489Z,39
2017-09-01T06:59:52.592Z,39.1
2017-09-01T07:00:50.696Z,39.3
2017-09-01T07:01:54.039Z,39.5
2017-09-01T07:02:50.830Z,39.6
2017-09-01T07:03:52.983Z,39.7
2017-09-01T07:04:51.126Z,39.6
2017-09-01T07:05:52.913Z,39.8
2017-09-01T07:06:54.403Z,39.9
2017-09-01T07:07:53.810Z,39.8
2017-09-01T07:08:51.263Z,39.8
2017-09-01T07:09:53.388Z,39.7
2017-09-01T07:10:51.794Z,39.7
2017-09-01T07:11:53.547Z,40.1
2017-09-01T07:12:53.565Z,40.7
2017-09-01T07:13:51.643Z,41.1
2017-09-01T07:14:51.688Z,41.3
2017-09-01T07:15:54.869Z,41.3
2017-09-01T07:16:52.923Z,41.3
2017-09-01T07:17:51.686Z,41.3
2017-09-01T07:18:53.860Z,41.2
2017-09-01T07:19:55.387Z,41.1
2017-09-01T07:20:51.842Z,40.7
2017-09-01T07:21:51.845Z,40.8
2017-09-01T07:22:55.521Z,41.1
2017-09-01T07:23:52.005Z,41.1
2017-09-01T07:24:55.321Z,41.1
2017-09-01T07:25:54.165Z,41
2017-09-01T07:26:52.064Z,41
2017-09-01T07:27:55.719Z,41
2017-09-01T07:28:52.617Z,40.9
2017-09-01T07:29:52.858Z,41.1
2017-09-01T07:30:54.668Z,41.1
2017-09-01T07:31:55.592Z,41.4
2017-09-01T07:32:54.435Z,41.7
2017-09-01T07:33:57.249Z,42.1
2017-09-01T07:34:53.337Z,42.5
2017-09-01T07:35:52.793Z,42.9
2017-09-01T07:36:56.662Z,43.3
2017-09-01T07:37:56.909Z,43.6
2017-09-01T07:38:56.600Z,44
2017-09-01T07:39:52.834Z,44.1
2017-09-01T07:40:52.923Z,44.3
2017-09-01T07:41:52.751Z,44.5
2017-09-01T07:42:52.987Z,44.7
2017-09-01T07:43:55.013Z,44.9
2017-09-01T07:44:55.254Z,45.2
2017-09-01T07:45:53.110Z,45.5
2017-09-01T07:46:56.565Z,45.6
2017-09-01T07:47:53.140Z,45.6
2017-09-01T07:48:56.583Z,45.5
2017-09-01T07:49:56.986Z,45.4
2017-09-01T07:50:55.283Z,45.3
2017-09-01T07:51:55.381Z,45.5
2017-09-01T07:52:54.763Z,45.5
2017-09-01T07:53:54.529Z,45.4
2017-09-01T07:54:55.642Z,45.5
2017-09-01T07:55:53.657Z,45.6
2017-09-01T07:56:53.587Z,45.6
2017-09-01T07:57:53.775Z,45.4
2017-09-01T07:58:54.146Z,45.3
2017-09-01T07:59:57.263Z,45.3
2017-09-01T08:00:57.281Z,45.4
2017-09-01T08:01:55.895Z,45.4
2017-09-01T08:02:57.385Z,45.6
2017-09-01T08:03:56.030Z,45.7
2017-09-01T08:04:56.123Z,45.8
2017-09-01T08:05:57.565Z,46.1
2017-09-01T08:06:55.936Z,46.3
2017-09-01T08:07:54.073Z,46.3
2017-09-01T08:08:54.275Z,46
2017-09-01T08:09:54.104Z,45.9
2017-09-01T08:10:54.434Z,46
2017-09-01T08:11:54.427Z,45.9
2017-09-01T08:12:54.294Z,45.8
2017-09-01T08:13:54.565Z,45.4
2017-09-01T08:14:56.530Z,45.2
2017-09-01T08:15:54.405Z,45.2
2017-09-01T08:16:54.962Z,45.1
2017-09-01T08:17:54.552Z,45
2017-09-01T08:18:56.748Z,44.6
2017-09-01T08:19:54.934Z,44.2
2017-09-01T08:20:56.940Z,43.8
2017-09-01T08:21:58.164Z,43.4
2017-09-01T08:22:55.256Z,43.1
2017-09-01T08:23:55.099Z,43.4
2017-09-01T08:24:56.890Z,43.5
2017-09-01T08:25:59.117Z,43.3
2017-09-01T08:26:55.125Z,43.3
2017-09-01T08:27:55.321Z,43.5
2017-09-01T08:28:57.586Z,43.7
2017-09-01T08:29:57.831Z,43.6
2017-09-01T08:30:55.308Z,43.5
2017-09-01T08:31:59.535Z,43.3
2017-09-01T08:32:55.544Z,43.3
2017-09-01T08:33:55.933Z,43
2017-09-01T08:34:55.688Z,42.7
2017-09-01T08:35:57.461Z,42.3
2017-09-01T08:36:56.263Z,41.9
2017-09-01T08:37:56.239Z,41.8
2017-09-01T08:38:59.672Z,41.8
2017-09-01T08:39:56.676Z,42
2017-09-01T08:40:58.061Z,42
2017-09-01T08:41:57.830Z,42
2017-09-01T08:42:57.901Z,41.6
2017-09-01T08:43:55.924Z,41.1
2017-09-01T08:44:56.122Z,40.4
2017-09-01T08:45:56.073Z,40
2017-09-01T08:46:56.523Z,39.7
2017-09-01T08:48:01.011Z,39.5
2017-09-01T08:48:58.410Z,39.2
2017-09-01T08:49:56.280Z,39.1
2017-09-01T08:50:58.265Z,39
2017-09-01T08:51:56.674Z,38.9
2017-09-01T08:52:57.405Z,38.8
2017-09-01T08:53:59.915Z,38.8
2017-09-01T08:55:00.869Z,38.8
2017-09-01T08:56:00.746Z,38.8
2017-09-01T08:56:59.226Z,38.8
2017-09-01T08:57:57.498Z,38.8
2017-09-01T08:58:58.982Z,38.7
2017-09-01T08:59:57.817Z,38.5
2017-09-01T09:01:00.074Z,38.5
2017-09-01T09:02:00.468Z,38.6
2017-09-01T09:02:59.093Z,38.6
2017-09-01T09:03:57.156Z,38.5
2017-09-01T09:04:57.485Z,38.5
2017-09-01T09:05:57.179Z,38.6
2017-09-01T09:07:01.291Z,38.7
2017-09-01T09:07:57.371Z,38.8
2017-09-01T09:08:57.218Z,39
2017-09-01T09:09:58.659Z,39.1
2017-09-01T09:10:57.704Z,39.1
2017-09-01T09:11:57.609Z,39.1
2017-09-01T09:12:57.456Z,39.2
2017-09-01T09:13:59.447Z,39.3
2017-09-01T09:14:59.720Z,39.2
2017-09-01T09:16:01.717Z,39
2017-09-01T09:16:57.955Z,39.1
2017-09-01T09:17:57.787Z,39.1
2017-09-01T09:18:58.036Z,39
2017-09-01T09:20:01.223Z,38.9
2017-09-01T09:20:59.941Z,39
2017-09-01T09:22:01.350Z,38.9
2017-09-01T09:22:58.299Z,38.9
2017-09-01T09:23:57.968Z,38.9
2017-09-01T09:25:01.354Z,39.1
2017-09-01T09:25:58.167Z,39
2017-09-01T09:27:00.088Z,39
2017-09-01T09:28:00.738Z,39.1
2017-09-01T09:29:01.934Z,39.1
2017-09-01T09:29:58.206Z,39.1
2017-09-01T09:30:58.238Z,39.2
2017-09-01T09:32:00.424Z,39.2
2017-09-01T09:33:00.213Z,39.2
2017-09-01T09:34:01.665Z,39.4
2017-09-01T09:34:58.747Z,39.4
2017-09-01T09:35:58.557Z,39.2
2017-09-01T09:36:58.779Z,39.2
2017-09-01T09:37:58.871Z,39.3
2017-09-01T09:38:58.737Z,39.4
2017-09-01T09:39:59.490Z,39.5
2017-09-01T09:41:00.047Z,39.4
2017-09-01T09:41:58.861Z,39.4
2017-09-01T09:42:59.184Z,39.4
2017-09-01T09:43:59.263Z,39.4
2017-09-01T09:45:01.086Z,39.5
2017-09-01T09:45:59.200Z,39.5
2017-09-01T09:46:59.604Z,39.6
2017-09-01T09:47:59.341Z,39.6
2017-09-01T09:49:00.484Z,39.6
2017-09-01T09:50:00.172Z,39.5
2017-09-01T09:51:00.768Z,39.5
2017-09-01T09:51:59.542Z,39.5
2017-09-01T09:53:00.625Z,39.6
2017-09-01T09:54:03.854Z,39.2
2017-09-01T09:54:59.929Z,38.7
2017-09-01T09:56:01.420Z,38.3
2017-09-01T09:57:00.057Z,38.1
2017-09-01T09:58:00.807Z,37.7
2017-09-01T09:59:00.373Z,37.3
2017-09-01T10:00:00.761Z,37.3
2017-09-01T10:01:02.265Z,37.1
2017-09-01T10:02:03.699Z,37.1
2017-09-01T10:03:00.124Z,36.9
2017-09-01T10:04:02.134Z,36.9
2017-09-01T10:05:00.584Z,36.8
2017-09-01T10:06:00.654Z,36.7
2017-09-01T10:07:00.474Z,36.5
2017-09-01T10:08:04.604Z,36.3
2017-09-01T10:09:01.027Z,36
2017-09-01T10:10:00.564Z,35.9
2017-09-01T10:11:01.047Z,35.9
2017-09-01T10:12:00.562Z,35.9
2017-09-01T10:13:00.806Z,35.9
2017-09-01T10:14:02.885Z,35.9
2017-09-01T10:15:00.607Z,35.8
2017-09-01T10:16:00.678Z,35.7
2017-09-01T10:17:04.283Z,35.6
2017-09-01T10:18:04.137Z,35.6
2017-09-01T10:19:01.583Z,35.6
2017-09-01T10:20:04.271Z,35.6
2017-09-01T10:21:00.926Z,35.7
2017-09-01T10:22:01.602Z,35.7
2017-09-01T10:23:04.736Z,35.8
2017-09-01T10:24:01.356Z,35.7
2017-09-01T10:25:03.163Z,35.7
2017-09-01T10:26:03.220Z,35.6
2017-09-01T10:27:01.657Z,35.5
2017-09-01T10:28:05.040Z,35.3
2017-09-01T10:29:01.777Z,35.3
2017-09-01T10:30:02.091Z,35.4
2017-09-01T10:31:05.715Z,35.5
2017-09-01T10:32:03.586Z,35.6
2017-09-01T10:33:01.955Z,35.5
2017-09-01T10:34:05.228Z,35.7
2017-09-01T10:35:02.870Z,35.7
2017-09-01T10:36:02.119Z,35.8
2017-09-01T10:37:02.563Z,35.9
2017-09-01T10:38:04.210Z,36.1
2017-09-01T10:39:04.711Z,36
2017-09-01T10:40:02.139Z,36
2017-09-01T10:41:06.029Z,36.1
2017-09-01T10:42:05.597Z,36.2
2017-09-01T10:43:04.224Z,36.3
2017-09-01T10:44:05.711Z,36.4
2017-09-01T10:45:05.252Z,36.4
2017-09-01T10:46:06.316Z,36.5
2017-09-01T10:47:02.761Z,36.5
2017-09-01T10:48:02.570Z,36.4
2017-09-01T10:49:03.580Z,36.6
2017-09-01T10:50:06.014Z,36.7
2017-09-01T10:51:05.436Z,36.8
2017-09-01T10:52:05.051Z,36.9
2017-09-01T10:53:02.923Z,37
2017-09-01T10:54:06.972Z,37.1
2017-09-01T10:55:03.596Z,37.1
2017-09-01T10:56:06.440Z,37.2
2017-09-01T10:57:05.123Z,37.2
2017-09-01T10:58:03.992Z,37.1
2017-09-01T10:59:03.052Z,37.1
2017-09-01T11:00:06.072Z,37.1
2017-09-01T11:01:03.806Z,37.2
2017-09-01T11:02:06.882Z,37.1
2017-09-01T11:03:06.739Z,37.2
2017-09-01T11:04:03.783Z,37.2
2017-09-01T11:05:06.053Z,37.2
2017-09-01T11:06:03.449Z,37
2017-09-01T11:07:03.726Z,37.2
2017-09-01T11:08:05.071Z,37.3
2017-09-01T11:09:09.001Z,37.3
2017-09-01T11:10:08.588Z,37.5
2017-09-01T11:11:05.890Z,37.5
2017-09-01T11:12:04.748Z,37.5
2017-09-01T11:13:07.625Z,37.7
2017-09-01T11:14:04.686Z,37.9
2017-09-01T11:15:04.600Z,37.8
2017-09-01T11:16:05.735Z,37.7
2017-09-01T11:17:04.044Z,37.8
2017-09-01T11:18:04.040Z,37.9
2017-09-01T11:19:04.119Z,38
2017-09-01T11:20:08.079Z,38
2017-09-01T11:21:04.173Z,38.2
2017-09-01T11:22:04.446Z,38.1
2017-09-01T11:23:05.080Z,38
2017-09-01T11:24:04.280Z,37.8
2017-09-01T11:25:04.372Z,37.7
2017-09-01T11:26:08.217Z,37.7
2017-09-01T11:27:06.480Z,37.7
2017-09-01T11:28:06.850Z,37.6
2017-09-01T11:29:04.566Z,37.4
2017-09-01T11:30:04.513Z,37.3
2017-09-01T11:31:04.574Z,37.3
2017-09-01T11:32:06.598Z,37.5
2017-09-01T11:33:05.378Z,37.6
2017-09-01T11:34:05.833Z,37.6
2017-09-01T11:35:04.986Z,37.8
2017-09-01T11:36:06.947Z,37.9
2017-09-01T11:37:06.868Z,38.1
2017-09-01T11:38:08.501Z,38.3
2017-09-01T11:39:08.314Z,38.3
2017-09-01T11:40:05.527Z,38.6
2017-09-01T11:41:08.859Z,38.7
2017-09-01T11:42:08.455Z,39
2017-09-01T11:43:08.516Z,39.1
2017-09-01T11:44:07.347Z,39.2
2017-09-01T11:45:05.547Z,39.3
2017-09-01T11:46:05.870Z,39.3
2017-09-01T11:47:07.333Z,39.3
2017-09-01T11:48:05.462Z,39.4
2017-09-01T11:49:05.708Z,39.6
2017-09-01T11:50:05.542Z,39.9
2017-09-01T11:51:07.528Z,40.2
2017-09-01T11:52:09.405Z,40.5
2017-09-01T11:53:05.770Z,40.7
2017-09-01T11:54:06.163Z,40.8
2017-09-01T11:55:09.053Z,41
2017-09-01T11:56:09.101Z,41.2
2017-09-01T11:57:09.350Z,41.3
2017-09-01T11:58:06.215Z,41.4
2017-09-01T11:59:06.700Z,41.7
2017-09-01T12:00:06.231Z,42.1
2017-09-01T12:01:09.595Z,42.4
2017-09-01T12:02:08.249Z,42.4
2017-09-01T12:03:06.396Z,42.2
2017-09-01T12:04:09.837Z,42.1
2017-09-01T12:05:06.538Z,42
2017-09-01T12:06:08.999Z,42
2017-09-01T12:07:09.062Z,42
2017-09-01T12:08:08.643Z,42
2017-09-01T12:09:09.139Z,42.1
2017-09-01T12:10:09.643Z,42.1
2017-09-01T12:11:07.592Z,42.2
2017-09-01T12:12:07.814Z,42.2
2017-09-01T12:13:08.682Z,42.2
2017-09-01T12:14:10.887Z,42.2
2017-09-01T12:15:08.874Z,42.2
2017-09-01T12:16:07.696Z,42.2
2017-09-01T12:17:07.720Z,42.3
2017-09-01T12:18:10.254Z,42.3
2017-09-01T12:19:07.780Z,42.2
2017-09-01T12:20:08.908Z,42.2
2017-09-01T12:21:11.232Z,42.2
2017-09-01T12:22:07.986Z,42.2
2017-09-01T12:23:07.263Z,42.2
2017-09-01T12:24:07.144Z,42.2
2017-09-01T12:25:09.283Z,42.2
2017-09-01T12:26:08.221Z,42.1
2017-09-01T12:27:12.101Z,42.1
2017-09-01T12:28:09.466Z,42.1
2017-09-01T12:29:10.518Z,42.2
2017-09-01T12:30:12.405Z,42.1
2017-09-01T12:31:07.443Z,42.1
2017-09-01T12:32:07.513Z,42.1
2017-09-01T12:33:09.225Z,42.1
2017-09-01T12:34:08.068Z,42.1
2017-09-01T12:35:08.474Z,42.1
2017-09-01T12:36:11.160Z,42.1
2017-09-01T12:37:09.256Z,42.1
2017-09-01T12:38:08.406Z,42.2
2017-09-01T12:39:11.217Z,42.2
2017-09-01T12:40:10.935Z,42.3
2017-09-01T12:41:08.156Z,42.4
2017-09-01T12:42:30.126Z,42.4
2017-09-01T12:43:29.579Z,42.4
2017-09-01T12:44:26.278Z,42.5
2017-09-01T12:45:27.304Z,42.5
2017-09-01T12:46:26.494Z,42.5
2017-09-01T12:47:26.527Z,42.6
2017-09-01T12:48:29.868Z,42.5
2017-09-01T12:49:30.268Z,42.4
2017-09-01T12:50:29.545Z,42.3
2017-09-01T12:51:30.603Z,42.2
2017-09-01T12:52:29.193Z,42.2
2017-09-01T12:53:26.546Z,42.2
2017-09-01T12:54:26.768Z,42.1
2017-09-01T12:55:28.730Z,42.1
2017-09-01T12:56:30.053Z,42.1
2017-09-01T12:57:27.051Z,42.1
2017-09-01T12:58:31.354Z,42.1
2017-09-01T12:59:26.833Z,42.1
2017-09-01T13:00:30.044Z,42.1
2017-09-01T13:01:31.648Z,42.1
2017-09-01T13:02:27.139Z,42.1
2017-09-01T13:03:30.553Z,42.2
2017-09-01T13:04:27.178Z,42.2
2017-09-01T13:05:31.230Z,42.3
2017-09-01T13:06:30.470Z,42.4
2017-09-01T13:07:30.835Z,42.5
2017-09-01T13:08:30.883Z,42.5
2017-09-01T13:09:27.596Z,42.6
2017-09-01T13:10:31.955Z,42.6
2017-09-01T13:11:31.389Z,42.7
2017-09-01T13:12:27.606Z,42.7
2017-09-01T13:13:30.779Z,42.8
2017-09-01T13:14:30.778Z,42.7
2017-09-01T13:15:29.820Z,42.7
2017-09-01T13:16:27.439Z,42.7
2017-09-01T13:17:30.798Z,42.7
2017-09-01T13:18:31.697Z,42.8
2017-09-01T13:19:27.585Z,42.8
2017-09-01T13:20:30.296Z,42.8
2017-09-01T13:21:31.316Z,42.8
2017-09-01T13:22:31.309Z,42.8
2017-09-01T13:23:29.952Z,42.9